Time;durP1;ratioP1;P1;durP2;ratioP2;P2;SDS_P1;SDS_P2;PMS_P1;PMS_P2;Temp;Humidity;BMP_temperature;BMP_pressure;BME280_temperature;BME280_humidity;BME280_pressure;Samples;Min_cycle;Max_cycle;Signal;HPM_P1;HPM_P2
2022/08/03 00:00:55;;;;;;;;;3.00;3.00;;;;;28.32;44.29;101236.13;5094611;27;45817;-80
2022/08/03 00:03:20;;;;;;;;;2.00;2.00;;;;;28.27;44.73;101235.81;5074818;27;45521;-80
2022/08/03 00:05:46;;;;;;;;;4.00;2.00;;;;;28.24;44.73;101244.38;5094574;27;46260;-80
2022/08/03 00:08:11;;;;;;;;;3.67;3.67;;;;;28.11;44.79;101224.81;5093977;27;45382;-80
2022/08/03 00:10:37;;;;;;;;;3.33;3.00;;;;;28.18;45.31;101242.31;5093744;27;45557;-80
2022/08/03 00:13:03;;;;;;;;;2.67;2.67;;;;;28.12;45.26;101246.59;5096838;27;45540;-80
2022/08/03 00:15:28;;;;;;;;;4.00;2.33;;;;;28.12;45.20;101248.47;5094252;27;45501;-80
2022/08/03 00:17:54;;;;;;;;;3.00;3.00;;;;;28.10;45.47;101245.91;5097605;27;45475;-80
2022/08/03 00:20:23;;;;;;;;;4.00;3.00;;;;;28.06;45.28;101250.00;5098386;27;45544;-80
2022/08/03 00:22:49;;;;;;;;;3.67;3.67;;;;;28.04;45.11;101252.06;5099233;27;45452;-80
2022/08/03 00:25:14;;;;;;;;;5.33;3.00;;;;;28.03;45.48;101254.97;5098167;27;46198;-80
2022/08/03 00:27:40;;;;;;;;;2.67;2.67;;;;;28.02;45.11;101247.78;5098178;27;45425;-80
2022/08/03 00:30:06;;;;;;;;;2.00;2.00;;;;;28.00;45.48;101250.66;5099177;27;45418;-80
2022/08/03 00:32:31;;;;;;;;;1.67;1.67;;;;;27.92;44.88;101228.75;5099008;27;45800;-79
2022/08/03 00:34:57;;;;;;;;;1.33;1.33;;;;;27.98;44.96;101241.78;5097756;27;46130;-80
2022/08/03 00:37:22;;;;;;;;;2.67;1.00;;;;;27.81;45.52;101220.81;5097009;27;45470;-80
2022/08/03 00:39:47;;;;;;;;;1.33;1.33;;;;;27.94;45.20;101244.00;5097699;27;45961;-80
2022/08/03 00:42:13;;;;;;;;;2.00;2.00;;;;;27.93;45.03;101242.28;5099474;27;45494;-80
2022/08/03 00:44:43;;;;;;;;;1.00;1.00;;;;;27.92;45.01;101242.44;5098350;27;45640;-80
2022/08/03 00:47:09;;;;;;;;;2.00;2.00;;;;;27.89;45.48;101245.53;5097769;27;45467;-80
2022/08/03 00:49:39;;;;;;;;;1.00;1.00;;;;;27.87;45.18;101242.94;5097838;27;45592;-80
2022/08/03 00:52:07;;;;;;;;;1.00;1.00;;;;;27.84;44.80;101239.69;5098230;27;45386;-80
2022/08/03 00:54:33;;;;;;;;;2.00;2.00;;;;;27.82;44.85;101234.34;5097817;27;46281;-79
2022/08/03 00:56:58;;;;;;;;;1.00;1.00;;;;;27.85;44.57;101234.03;5097476;27;45744;-78
2022/08/03 00:59:23;;;;;;;;;1.00;1.00;;;;;27.79;45.18;101227.34;5096640;27;45754;-78
2022/08/03 01:01:49;;;;;;;;;2.00;2.00;;;;;27.83;44.97;101241.56;5098128;27;45437;-79
2022/08/03 01:04:14;;;;;;;;;0.00;0.00;;;;;27.78;44.72;101233.81;5098261;27;45905;-78
2022/08/03 01:06:48;;;;;;;;;2.00;0.00;;;;;27.77;44.66;101237.59;5087913;27;45498;-78
2022/08/03 01:09:39;;;;;;;;;1.00;1.00;;;;;27.68;45.12;101218.56;5076954;27;45538;-79
2022/08/03 01:12:35;;;;;;;;;1.00;1.00;;;;;27.75;44.80;101219.63;5059606;28;45509;-78
2022/08/03 01:15:16;;;;;;;;;1.75;1.00;;;;;27.72;44.46;101214.44;5051638;28;47106;-79
2022/08/03 01:17:53;;;;;;;;;2.00;2.00;;;;;27.70;44.75;101216.53;5078711;28;45441;-71
2022/08/03 01:20:21;;;;;;;;;0.00;0.00;;;;;27.64;45.00;101215.28;5072205;28;45544;-71
2022/08/03 01:23:14;;;;;;;;;1.00;1.00;;;;;27.64;44.85;101215.28;5077958;28;45526;-71
2022/08/03 01:26:14;;;;;;;;;2.00;2.00;;;;;27.53;45.00;101193.69;5064208;28;47391;-71
2022/08/03 01:29:04;;;;;;;;;4.00;2.00;;;;;27.57;44.81;101209.63;5013225;28;45688;-71
2022/08/03 01:31:41;;;;;;;;;3.33;2.00;;;;;27.55;45.46;101206.19;5015061;28;45694;-71
2022/08/03 01:34:10;;;;;;;;;0.00;0.00;;;;;27.55;44.77;101206.19;5013562;28;45601;-71
2022/08/03 01:36:42;;;;;;;;;1.00;1.00;;;;;27.52;44.59;101209.28;5014726;28;46241;-71
2022/08/03 01:39:10;;;;;;;;;3.00;1.00;;;;;27.51;44.78;101204.84;5012966;28;45561;-71
2022/08/03 01:41:41;;;;;;;;;1.00;1.00;;;;;27.46;44.76;101200.88;5013131;28;45843;-71
2022/08/03 01:44:09;;;;;;;;;0.50;0.50;;;;;27.48;44.28;101204.31;4998029;28;45798;-71
2022/08/03 01:46:37;;;;;;;;;0.25;0.25;;;;;27.44;44.37;101198.31;5013639;28;46222;-71
2022/08/03 01:49:06;;;;;;;;;1.50;1.50;;;;;27.43;44.14;101196.59;5012583;28;45671;-71
2022/08/03 01:51:32;;;;;;;;;1.50;0.75;;;;;27.41;44.45;101197.78;5013682;28;45824;-72
2022/08/03 01:53:59;;;;;;;;;1.00;1.00;;;;;27.31;43.96;101190.56;5011631;28;45590;-71
2022/08/03 01:56:27;;;;;;;;;1.00;1.00;;;;;27.36;44.13;101199.13;4997823;28;47105;-71
2022/08/03 01:58:55;;;;;;;;;2.00;1.00;;;;;27.26;44.42;101183.88;5012833;28;45541;-71
2022/08/03 02:01:22;;;;;;;;;0.00;0.00;;;;;27.31;44.80;101186.97;5012015;28;46048;-71
2022/08/03 02:03:49;;;;;;;;;0.00;0.00;;;;;27.28;44.72;101190.91;5015602;28;45519;-71
2022/08/03 02:06:17;;;;;;;;;1.00;1.00;;;;;27.24;44.73;101189.50;5055494;28;46161;-71
2022/08/03 02:08:46;;;;;;;;;2.00;2.00;;;;;27.23;44.61;101189.66;5047713;27;45496;-71
2022/08/03 02:11:12;;;;;;;;;0.00;0.00;;;;;27.21;44.93;101194.47;5096643;27;45477;-71
2022/08/03 02:13:38;;;;;;;;;2.00;0.67;;;;;27.19;45.17;101188.25;5096011;27;45623;-71
2022/08/03 02:16:04;;;;;;;;;0.00;0.00;;;;;27.11;45.16;101179.00;5086324;27;47629;-71
2022/08/03 02:18:32;;;;;;;;;0.00;0.00;;;;;27.14;45.02;101186.03;5096298;27;45717;-71
2022/08/03 02:21:01;;;;;;;;;2.00;1.00;;;;;27.07;44.98;101176.75;5096717;27;45387;-71
2022/08/03 02:23:26;;;;;;;;;2.00;1.67;;;;;27.08;45.00;101175.72;5097668;27;45489;-71
2022/08/03 02:25:56;;;;;;;;;1.00;1.00;;;;;27.09;45.11;101182.91;5095908;27;46029;-71
2022/08/03 02:28:28;;;;;;;;;2.00;0.00;;;;;26.82;45.04;101129.28;5095859;27;45832;-71
2022/08/03 02:30:55;;;;;;;;;1.00;1.00;;;;;27.00;44.64;101170.22;5097141;27;45524;-71
2022/08/03 02:33:29;;;;;;;;;0.25;0.25;;;;;26.98;44.83;101169.53;5097588;27;45425;-71
2022/08/03 02:35:56;;;;;;;;;1.00;1.00;;;;;27.03;45.16;101187.16;5095888;27;46082;-71
2022/08/03 02:38:27;;;;;;;;;2.00;1.00;;;;;27.01;45.31;101185.59;5095924;27;45496;-71
2022/08/03 02:40:56;;;;;;;;;2.00;1.00;;;;;27.00;45.26;101186.66;5093784;27;45502;-71
2022/08/03 02:43:24;;;;;;;;;2.00;1.00;;;;;26.92;44.96;101181.97;5097556;27;45523;-71
2022/08/03 02:45:51;;;;;;;;;3.50;1.00;;;;;26.91;44.89;101183.00;5096929;27;45386;-71
2022/08/03 02:48:22;;;;;;;;;2.00;1.00;;;;;26.89;45.07;101176.84;5096735;27;45457;-71
2022/08/03 02:50:48;;;;;;;;;2.75;1.00;;;;;26.87;45.10;101182.47;5077657;27;45502;-71
2022/08/03 02:53:16;;;;;;;;;1.00;1.00;;;;;26.84;45.60;101185.53;5097378;27;45437;-71
2022/08/03 02:55:42;;;;;;;;;0.00;0.00;;;;;26.81;45.65;101177.66;5096289;27;45559;-71
2022/08/03 02:58:10;;;;;;;;;1.00;1.00;;;;;26.81;45.08;101177.66;5096843;27;45451;-71
2022/08/03 03:00:38;;;;;;;;;0.00;0.00;;;;;26.80;45.10;101167.72;5095641;27;45527;-71
2022/08/03 03:03:05;;;;;;;;;1.25;0.75;;;;;26.80;45.45;101164.97;5093116;27;45642;-71
2022/08/03 03:05:31;;;;;;;;;0.33;0.33;;;;;26.78;45.53;101172.50;5090140;27;45512;-72
2022/08/03 03:07:57;;;;;;;;;1.00;1.00;;;;;26.77;45.60;101165.31;5096296;27;45526;-71
2022/08/03 03:10:24;;;;;;;;;1.00;1.00;;;;;26.77;45.66;101175.41;5094800;27;45585;-71
2022/08/03 03:12:53;;;;;;;;;2.00;1.00;;;;;26.77;45.47;101169.94;5097016;27;45409;-71
2022/08/03 03:15:19;;;;;;;;;1.00;1.00;;;;;26.74;45.80;101165.66;5096337;27;47365;-71
2022/08/03 03:17:46;;;;;;;;;2.00;2.00;;;;;26.72;45.78;101170.44;5095501;27;45505;-79
2022/08/03 03:20:14;;;;;;;;;1.00;1.00;;;;;26.69;46.14;101165.25;5089031;27;45561;-79
2022/08/03 03:22:41;;;;;;;;;2.25;0.50;;;;;26.64;46.04;101164.88;5097289;27;45450;-79
2022/08/03 03:25:07;;;;;;;;;1.00;1.00;;;;;26.58;45.86;101166.41;5094981;27;46133;-79
2022/08/03 03:27:34;;;;;;;;;1.00;1.00;;;;;26.56;46.33;101168.44;5095889;27;45561;-79
2022/08/03 03:29:59;;;;;;;;;0.00;0.00;;;;;26.49;46.29;101150.94;5096226;27;45453;-79
2022/08/03 03:32:29;;;;;;;;;1.00;1.00;;;;;26.41;46.60;101149.00;5094875;27;45921;-79
2022/08/03 03:34:57;;;;;;;;;1.00;1.00;;;;;26.50;45.97;101161.72;5095898;27;45395;-79
2022/08/03 03:37:23;;;;;;;;;0.75;0.75;;;;;26.45;46.74;101149.53;5096945;27;45403;-79
2022/08/03 03:39:49;;;;;;;;;1.00;1.00;;;;;26.44;46.76;101156.03;5072012;27;45571;-78
2022/08/03 03:42:14;;;;;;;;;2.00;1.00;;;;;26.44;46.04;101154.16;5096271;27;45439;-79
2022/08/03 03:44:39;;;;;;;;;1.67;1.67;;;;;26.42;46.72;101152.59;5096004;27;46038;-79
2022/08/03 03:47:05;;;;;;;;;1.00;1.00;;;;;26.39;46.37;101156.53;5094988;27;46840;-78
2022/08/03 03:49:31;;;;;;;;;1.00;1.00;;;;;26.38;46.79;101159.41;5095882;27;45590;-78
2022/08/03 03:51:56;;;;;;;;;1.00;1.00;;;;;26.35;46.96;101149.66;5094330;27;45430;-78
2022/08/03 03:54:22;;;;;;;;;1.00;1.00;;;;;26.32;46.98;101149.97;5095725;27;46413;-78
2022/08/03 03:56:47;;;;;;;;;0.50;0.00;;;;;26.34;46.91;101153.41;5093464;27;45536;-78
2022/08/03 03:59:13;;;;;;;;;1.25;0.75;;;;;26.32;47.00;101155.44;5095775;27;45639;-79
2022/08/03 04:01:39;;;;;;;;;1.00;1.00;;;;;26.30;46.62;101154.75;5093102;27;45457;-79
2022/08/03 04:12:24;;;;;;;;;1.33;1.33;;;;;26.22;46.67;101161.00;5092644;27;45637;-79
2022/08/03 04:14:53;;;;;;;;;1.67;1.00;;;;;26.08;47.21;101142.44;5096207;27;46141;-79
2022/08/03 04:17:22;;;;;;;;;1.00;1.00;;;;;26.15;47.08;101164.50;5087317;27;46485;-77
2022/08/03 04:19:51;;;;;;;;;2.33;1.00;;;;;26.13;47.56;101161.97;5083979;27;45641;-79
2022/08/03 04:22:21;;;;;;;;;1.00;1.00;;;;;26.09;47.15;101158.69;5094528;27;45427;-79
2022/08/03 04:25:00;;;;;;;;;1.00;1.00;;;;;26.06;47.58;101155.41;5093201;27;46820;-74
2022/08/03 04:27:30;;;;;;;;;3.00;1.00;;;;;26.04;47.74;101158.28;5077847;27;45748;-80
2022/08/03 04:29:58;;;;;;;;;2.00;2.00;;;;;26.04;47.72;101163.75;5095562;27;45489;-78
2022/08/03 04:32:27;;;;;;;;;2.00;1.00;;;;;26.04;47.22;101165.63;5093790;27;45652;-78
2022/08/03 04:34:53;;;;;;;;;3.00;1.33;;;;;25.95;47.58;101148.31;5093409;27;45478;-74
2022/08/03 04:37:30;;;;;;;;;3.00;1.33;;;;;26.01;47.23;101166.81;5093266;27;45850;-71
2022/08/03 04:40:00;;;;;;;;;1.00;1.00;;;;;26.01;47.27;101155.91;5092648;27;45684;-74
2022/08/03 04:42:27;;;;;;;;;1.00;1.00;;;;;26.01;47.26;101163.19;5094874;27;45683;-73
2022/08/03 04:44:55;;;;;;;;;1.00;1.00;;;;;26.00;47.94;101156.88;5093003;27;45528;-77
2022/08/03 04:47:21;;;;;;;;;3.00;1.67;;;;;25.98;47.91;101155.34;5095195;27;45526;-77
2022/08/03 04:49:47;;;;;;;;;3.00;2.00;;;;;25.97;47.58;101159.94;5095180;27;45419;-77
2022/08/03 04:52:13;;;;;;;;;1.00;1.00;;;;;25.98;47.63;101161.66;5094360;27;45540;-78
2022/08/03 04:54:40;;;;;;;;;2.00;2.00;;;;;25.98;47.54;101163.53;5090105;27;45523;-77
2022/08/03 04:57:05;;;;;;;;;2.33;1.33;;;;;25.90;47.88;101142.47;5078982;27;45421;-76
2022/08/03 04:59:31;;;;;;;;;4.00;2.00;;;;;25.97;47.99;101159.09;5088663;27;45728;-76
2022/08/03 05:01:58;;;;;;;;;2.67;2.00;;;;;25.97;48.22;101150.91;5090754;27;45666;-76
2022/08/03 05:04:24;;;;;;;;;1.00;1.00;;;;;25.92;48.13;101150.50;5088841;27;47226;-78
2022/08/03 05:06:49;;;;;;;;;2.33;1.33;;;;;25.97;48.55;101159.09;5082942;27;45597;-75
2022/08/03 05:09:14;;;;;;;;;2.33;2.00;;;;;25.84;48.14;101132.13;5086050;27;46038;-75
2022/08/03 05:11:40;;;;;;;;;1.00;1.00;;;;;26.00;47.97;101167.81;5074194;27;45766;-76
2022/08/03 05:14:05;;;;;;;;;2.00;2.00;;;;;25.99;48.67;101162.50;5077419;27;48240;-79
2022/08/03 05:16:30;;;;;;;;;2.67;2.00;;;;;26.00;47.86;101167.81;5079175;27;45470;-74
2022/08/03 05:18:56;;;;;;;;;2.67;1.67;;;;;25.93;48.13;101154.94;5076499;27;45616;-77
2022/08/03 05:21:21;;;;;;;;;3.67;3.33;;;;;26.04;48.25;101165.63;5079599;27;45590;-75
2022/08/03 05:23:47;;;;;;;;;3.00;3.00;;;;;25.99;48.29;101155.19;5080815;27;45687;-78
2022/08/03 05:26:12;;;;;;;;;4.00;2.33;;;;;26.10;47.77;101168.56;5078285;27;45555;-81
2022/08/03 05:28:37;;;;;;;;;3.00;3.00;;;;;26.15;48.44;101159.91;5080376;27;45466;-81
2022/08/03 05:31:03;;;;;;;;;5.00;3.00;;;;;26.17;47.93;101166.06;5080075;27;45566;-83
2022/08/03 05:33:28;;;;;;;;;3.67;2.33;;;;;26.18;47.46;101165.06;5085586;27;46354;-81
2022/08/03 05:35:54;;;;;;;;;3.00;3.00;;;;;26.18;47.28;101164.22;5098590;27;45554;-82
2022/08/03 05:38:19;;;;;;;;;4.00;4.00;;;;;26.22;47.44;101171.94;5099018;27;45585;-81
2022/08/03 05:40:44;;;;;;;;;3.00;3.00;;;;;26.19;47.40;101158.56;5099681;27;45496;-82
2022/08/03 05:43:10;;;;;;;;;3.67;3.67;;;;;26.15;47.87;101150.84;5099043;27;45930;-82
2022/08/03 05:45:37;;;;;;;;;4.00;3.33;;;;;26.30;47.88;101176.59;5087093;27;45369;-82
2022/08/03 05:48:04;;;;;;;;;3.67;3.67;;;;;26.27;47.77;101168.69;5078466;27;45465;-82
2022/08/03 05:50:29;;;;;;;;;3.00;3.00;;;;;26.25;47.70;101155.22;5078573;27;45356;-81
2022/08/03 05:52:57;;;;;;;;;3.33;3.33;;;;;26.30;47.52;101162.94;5078426;28;45740;-81
2022/08/03 05:55:23;;;;;;;;;3.67;3.67;;;;;26.40;47.67;101171.88;5078408;28;45633;-82
2022/08/03 05:57:48;;;;;;;;;2.67;2.67;;;;;26.43;47.68;101176.16;5078412;28;45647;-81
2022/08/03 06:00:15;;;;;;;;;4.33;4.00;;;;;26.43;47.27;101174.28;5078862;28;45887;-82
2022/08/03 06:02:41;;;;;;;;;5.33;4.00;;;;;26.47;47.60;101183.03;5078213;28;46358;-82
2022/08/03 06:05:07;;;;;;;;;3.33;3.33;;;;;26.50;47.43;101185.44;5078069;27;45497;-82
2022/08/03 06:07:33;;;;;;;;;3.00;3.00;;;;;26.55;46.93;101187.72;5078126;28;45451;-81
2022/08/03 06:10:01;;;;;;;;;6.33;4.33;;;;;26.51;47.44;101179.81;5089508;27;45429;-82
2022/08/03 06:12:26;;;;;;;;;4.67;4.00;;;;;26.58;47.29;101181.97;5098296;27;47673;-81
2022/08/03 06:14:51;;;;;;;;;3.67;3.67;;;;;26.62;47.11;101188.81;5097638;27;45460;-81
2022/08/03 06:17:17;;;;;;;;;5.33;4.67;;;;;26.61;46.68;101171.53;5098774;27;45407;-82
2022/08/03 06:19:42;;;;;;;;;5.33;5.33;;;;;26.69;47.30;101181.66;5098694;27;45376;-82
2022/08/03 06:22:07;;;;;;;;;6.00;4.00;;;;;26.71;46.94;101179.63;5098516;27;46052;-82
2022/08/03 06:24:33;;;;;;;;;4.00;4.00;;;;;26.73;47.00;101189.38;5098590;27;45368;-82
2022/08/03 06:26:58;;;;;;;;;4.33;3.00;;;;;26.76;46.74;101188.19;5098370;27;45331;-82
2022/08/03 06:29:23;;;;;;;;;7.33;5.00;;;;;26.72;46.82;101175.91;5098940;27;45382;-82
2022/08/03 06:31:49;;;;;;;;;6.67;4.00;;;;;26.80;46.85;101183.28;5098037;27;46125;-82
2022/08/03 06:34:14;;;;;;;;;6.00;6.00;;;;;26.81;46.90;101177.66;5098021;27;45336;-82
2022/08/03 06:36:40;;;;;;;;;3.00;3.00;;;;;26.92;46.67;101180.09;5080040;27;45466;-82
2022/08/03 06:39:05;;;;;;;;;2.67;2.00;;;;;26.98;47.03;101181.31;5098517;27;45574;-82
2022/08/03 06:41:30;;;;;;;;;5.67;4.00;;;;;27.02;46.24;101181.84;5097965;27;45418;-82
2022/08/03 06:43:56;;;;;;;;;6.33;4.00;;;;;27.05;46.08;101171.44;5098138;27;45435;-82
2022/08/03 06:46:21;;;;;;;;;4.00;4.00;;;;;27.11;46.52;101178.13;5098025;27;45394;-82
2022/08/03 06:48:47;;;;;;;;;5.33;4.33;;;;;27.16;46.18;101184.84;5079761;27;45473;-82
2022/08/03 06:51:13;;;;;;;;;3.00;3.00;;;;;27.21;46.03;101178.91;5097750;27;46020;-82
2022/08/03 06:53:38;;;;;;;;;3.67;3.00;;;;;27.27;46.07;101180.09;5097514;27;45430;-82
2022/08/03 06:56:04;;;;;;;;;12.00;5.00;;;;;27.29;45.36;101172.59;5097986;27;45425;-82
2022/08/03 06:58:30;;;;;;;;;3.67;3.67;;;;;27.35;46.00;101178.25;5098395;27;45479;-82
2022/08/03 07:00:55;;;;;;;;;6.33;5.00;;;;;27.39;45.12;101178.75;5097808;27;47029;-82
2022/08/03 07:03:20;;;;;;;;;3.67;3.67;;;;;27.41;45.70;101173.13;5097633;27;45429;-83
2022/08/03 07:05:46;;;;;;;;;4.67;4.00;;;;;27.48;45.16;101180.50;5079645;27;45485;-82
2022/08/03 07:08:12;;;;;;;;;5.67;5.33;;;;;27.52;45.40;101175.56;5097844;27;45349;-83
2022/08/03 07:10:38;;;;;;;;;4.33;4.00;;;;;27.50;45.00;101169.41;5097487;27;46368;-82
2022/08/03 07:13:05;;;;;;;;;5.67;4.67;;;;;27.58;45.10;101183.97;5097521;27;45443;-82
2022/08/03 07:15:31;;;;;;;;;13.67;12.67;;;;;27.64;45.14;101176.94;5097559;27;45442;-82
2022/08/03 07:17:56;;;;;;;;;4.00;4.00;;;;;27.68;45.21;101180.22;5097716;27;45386;-71
2022/08/03 07:20:21;;;;;;;;;3.67;3.67;;;;;27.72;44.76;101181.59;5097325;27;45918;-71
2022/08/03 07:22:47;;;;;;;;;5.33;5.33;;;;;27.75;44.40;101182.13;5097566;27;45809;-71
2022/08/03 07:25:13;;;;;;;;;6.33;6.33;;;;;27.78;44.24;101180.91;5097434;27;45469;-71
2022/08/03 07:27:42;;;;;;;;;4.33;3.00;;;;;27.80;44.50;101178.88;5078811;27;45564;-71
2022/08/03 07:30:08;;;;;;;;;4.33;3.00;;;;;27.84;44.30;101183.03;5078685;27;46380;-71
2022/08/03 07:32:34;;;;;;;;;6.00;4.00;;;;;27.87;44.61;101176.34;5096851;27;45373;-71
2022/08/03 07:34:59;;;;;;;;;4.00;4.00;;;;;27.92;44.36;101180.28;5097081;27;45473;-71
2022/08/03 07:37:25;;;;;;;;;8.00;6.00;;;;;27.97;44.16;101188.00;5097421;27;45378;-71
2022/08/03 07:39:50;;;;;;;;;6.67;6.67;;;;;28.01;44.31;101183.03;5078760;27;45463;-71
2022/08/03 07:42:15;;;;;;;;;4.00;4.00;;;;;27.98;43.95;101173.28;5097137;27;45499;-71
2022/08/03 07:44:40;;;;;;;;;4.67;4.67;;;;;28.06;43.11;101177.91;5096940;27;45466;-71
2022/08/03 07:47:06;;;;;;;;;7.00;5.33;;;;;28.10;43.41;101171.06;5079030;27;45505;-71
2022/08/03 07:49:31;;;;;;;;;5.00;5.00;;;;;28.16;43.82;101170.34;5097242;27;45679;-71
2022/08/03 07:54:42;;;;;;;;;4.33;3.33;;;;;28.29;43.01;101178.06;5097271;27;45460;-71
2022/08/03 07:57:08;;;;;;;;;9.33;6.33;;;;;28.29;42.90;101169.84;5097226;27;45874;-71
2022/08/03 07:59:34;;;;;;;;;9.00;6.00;;;;;28.33;43.31;101169.31;5096538;27;45524;-71
2022/08/03 08:01:59;;;;;;;;;4.00;4.00;;;;;28.38;43.21;101169.66;5078330;27;45862;-71
2022/08/03 08:04:24;;;;;;;;;3.33;3.00;;;;;28.38;42.59;101160.56;5078514;27;45470;-71
2022/08/03 08:06:50;;;;;;;;;7.00;5.67;;;;;28.49;42.65;101170.34;5096457;27;48522;-71
2022/08/03 08:09:15;;;;;;;;;4.00;3.33;;;;;28.54;42.38;101171.56;5096333;27;46816;-72
2022/08/03 08:11:40;;;;;;;;;7.67;5.67;;;;;28.51;42.44;101157.31;5096713;27;45410;-72
2022/08/03 08:14:06;;;;;;;;;4.00;3.00;;;;;28.63;42.09;101172.38;5096890;27;45430;-71
2022/08/03 08:16:32;;;;;;;;;6.00;4.33;;;;;28.71;42.04;101174.25;5096940;27;45624;-82
2022/08/03 08:18:57;;;;;;;;;9.33;4.67;;;;;28.76;41.55;101171.84;5096409;27;47118;-82
2022/08/03 08:21:23;;;;;;;;;2.33;2.00;;;;;28.75;41.47;101156.38;5096719;27;45431;-83
2022/08/03 08:23:48;;;;;;;;;4.33;4.33;;;;;28.81;41.18;101163.94;5096959;27;45458;-82
2022/08/03 08:26:13;;;;;;;;;4.00;4.00;;;;;28.93;40.78;101169.88;5096824;27;45469;-83
2022/08/03 08:28:39;;;;;;;;;4.00;4.00;;;;;28.93;40.83;101158.91;5077658;27;46616;-82
2022/08/03 08:31:04;;;;;;;;;3.00;3.00;;;;;28.97;40.42;101154.78;5096704;27;45453;-82
2022/08/03 08:33:31;;;;;;;;;3.67;2.33;;;;;29.11;40.69;101170.53;5096749;27;45596;-83
2022/08/03 08:35:56;;;;;;;;;2.67;2.67;;;;;29.17;40.77;101160.72;5096920;27;45541;-83
2022/08/03 08:38:22;;;;;;;;;4.00;4.00;;;;;29.19;40.35;101159.50;5079129;27;47128;-83
2022/08/03 08:40:49;;;;;;;;;5.00;3.33;;;;;29.31;39.93;101164.59;5099849;27;45530;-83
2022/08/03 08:43:14;;;;;;;;;2.00;2.00;;;;;29.29;39.65;101148.31;5100014;27;45436;-83
2022/08/03 08:45:40;;;;;;;;;2.33;2.33;;;;;29.21;39.53;101118.16;5100164;27;45429;-83
2022/08/03 08:48:08;;;;;;;;;4.00;4.00;;;;;29.49;38.74;101145.09;5100328;27;45727;-83
2022/08/03 08:50:36;;;;;;;;;4.00;4.00;;;;;29.81;38.40;101163.31;5081256;27;45928;-83
2022/08/03 08:53:02;;;;;;;;;4.00;3.00;;;;;30.34;37.37;101152.38;5099996;27;45340;-83
2022/08/03 08:55:28;;;;;;;;;5.33;5.00;;;;;33.88;32.35;101143.47;5100338;27;45382;-83
2022/08/03 08:58:03;;;;;;;;;5.33;2.00;;;;;38.05;27.05;101145.38;5099302;27;46393;-83
2022/08/03 09:00:29;;;;;;;;;5.00;3.00;;;;;40.66;23.27;101139.38;5099382;27;45446;-83
2022/08/03 09:02:55;;;;;;;;;7.00;4.00;;;;;42.56;21.28;101139.41;5099933;27;45512;-83
2022/08/03 09:05:20;;;;;;;;;3.00;3.00;;;;;44.03;19.31;101136.53;5081639;27;45599;-83
2022/08/03 09:07:47;;;;;;;;;3.67;3.67;;;;;45.38;18.21;101136.69;5099758;27;45705;-83
2022/08/03 09:10:18;;;;;;;;;2.00;1.33;;;;;46.62;17.10;101145.78;5099406;27;45527;-84
2022/08/03 09:12:45;;;;;;;;;3.67;3.67;;;;;47.74;15.83;101146.22;5099234;27;45436;-83
2022/08/03 09:15:20;;;;;;;;;4.00;3.00;;;;;48.71;15.67;101156.97;5099949;27;45399;-83
2022/08/03 09:17:46;;;;;;;;;1.00;1.00;;;;;49.57;14.72;101150.53;5099349;27;45434;-84
2022/08/03 09:20:12;;;;;;;;;2.00;2.00;;;;;50.40;13.58;101155.81;5099353;27;45426;-84
2022/08/03 09:22:59;;;;;;;;;2.00;2.00;;;;;51.25;13.27;101159.25;5081423;27;45379;-84
2022/08/03 09:25:29;;;;;;;;;2.67;1.00;;;;;51.98;12.84;101166.28;5081077;27;45728;-84
2022/08/03 09:28:02;;;;;;;;;2.00;1.00;;;;;52.45;12.10;101163.50;5098297;27;46202;-83
2022/08/03 09:30:28;;;;;;;;;2.00;2.00;;;;;52.92;11.86;101170.00;5098942;27;45458;-83
2022/08/03 09:32:59;;;;;;;;;0.67;0.67;;;;;53.38;11.74;101162.44;5098910;27;45449;-84
2022/08/03 09:35:27;;;;;;;;;2.00;2.00;;;;;53.98;11.25;101162.28;5099410;27;45456;-84
2022/08/03 09:38:16;;;;;;;;;1.00;1.00;;;;;54.38;11.29;101162.47;5080101;27;45739;-84
2022/08/03 09:40:43;;;;;;;;;2.00;2.00;;;;;54.79;10.30;101152.03;5098630;27;45679;-84
2022/08/03 09:43:09;;;;;;;;;2.67;1.67;;;;;55.18;10.42;101165.94;5098648;27;45480;-84
2022/08/03 09:45:36;;;;;;;;;1.00;1.00;;;;;55.39;10.42;101151.50;5099144;27;45391;-84
2022/08/03 09:48:24;;;;;;;;;2.67;1.67;;;;;55.69;10.11;101156.88;5080170;27;49091;-84
2022/08/03 09:51:02;;;;;;;;;1.33;1.33;;;;;55.91;9.93;101146.84;5098657;27;45587;-84
2022/08/03 09:53:27;;;;;;;;;5.33;3.00;;;;;56.30;9.43;101127.06;5099260;27;45498;-84
2022/08/03 09:55:59;;;;;;;;;6.33;4.00;;;;;56.50;9.54;101134.53;5080964;27;45617;-84
2022/08/03 09:58:27;;;;;;;;;3.00;2.00;;;;;56.69;9.52;101145.22;5098836;27;45510;-84
2022/08/03 10:00:58;;;;;;;;;1.33;1.33;;;;;56.94;8.84;101147.91;5098541;27;45465;-85
2022/08/03 10:03:26;;;;;;;;;1.67;1.00;;;;;56.94;8.72;101142.97;5098992;27;45458;-84
2022/08/03 10:05:52;;;;;;;;;2.00;1.00;;;;;57.06;8.56;101139.16;5099088;27;45624;-84
2022/08/03 10:08:19;;;;;;;;;2.00;2.00;;;;;57.12;9.07;101139.69;5098225;27;46344;-85
2022/08/03 10:10:46;;;;;;;;;2.00;2.00;;;;;57.18;9.11;101139.00;5098236;27;45392;-85
2022/08/03 10:13:13;;;;;;;;;0.00;0.00;;;;;57.21;8.70;101131.72;5098540;27;45372;-83
2022/08/03 10:15:40;;;;;;;;;0.00;0.00;;;;;57.27;8.89;101139.63;5098901;27;45386;-83
2022/08/03 10:18:06;;;;;;;;;2.33;2.33;;;;;57.18;8.57;101121.78;5098449;27;46243;-84
2022/08/03 10:20:40;;;;;;;;;1.00;1.00;;;;;57.22;8.56;101116.16;5098523;27;45451;-84
2022/08/03 10:23:07;;;;;;;;;1.00;1.00;;;;;57.31;8.65;101121.69;5080405;27;45435;-84
2022/08/03 10:25:34;;;;;;;;;1.67;1.67;;;;;57.32;8.16;101123.34;5098399;27;45564;-84
2022/08/03 10:28:03;;;;;;;;;0.33;0.33;;;;;57.12;8.61;101131.09;5098059;27;46209;-85
2022/08/03 10:30:30;;;;;;;;;2.00;2.00;;;;;56.97;8.74;101121.34;5098371;27;45509;-84
2022/08/03 10:33:03;;;;;;;;;2.00;2.00;;;;;56.66;8.76;101121.03;5098373;27;45491;-84
2022/08/03 10:35:30;;;;;;;;;1.00;1.00;;;;;56.51;8.61;101106.75;5098545;27;45392;-84
2022/08/03 10:37:55;;;;;;;;;1.00;1.00;;;;;56.25;8.49;101111.81;5098048;27;45449;-84
2022/08/03 10:40:22;;;;;;;;;2.00;2.00;;;;;55.78;8.61;101115.47;5097613;27;45473;-84
2022/08/03 10:42:53;;;;;;;;;1.00;1.00;;;;;55.52;9.19;101110.22;5098366;27;45435;-84
2022/08/03 10:45:22;;;;;;;;;1.33;1.33;;;;;55.20;9.37;101112.94;5098213;27;45531;-83
2022/08/03 10:47:50;;;;;;;;;2.00;2.00;;;;;54.66;9.45;101104.69;5097709;27;45473;-84
2022/08/03 10:50:17;;;;;;;;;1.33;1.00;;;;;54.29;9.84;101101.00;5079524;27;45419;-84
2022/08/03 10:52:54;;;;;;;;;1.67;1.67;;;;;54.03;9.94;101101.31;5097991;27;45414;-85
2022/08/03 10:58:12;;;;;;;;;1.33;1.33;;;;;53.54;10.41;101056.38;5097717;27;45414;-83
2022/08/03 11:00:49;;;;;;;;;0.67;0.67;;;;;53.17;10.30;101056.19;5078742;27;45605;-85
2022/08/03 11:03:14;;;;;;;;;2.00;2.00;;;;;52.86;10.81;101048.06;5097886;27;45470;-84
2022/08/03 11:05:53;;;;;;;;;2.33;1.00;;;;;52.68;10.88;101053.03;5097837;27;45489;-84
2022/08/03 11:08:27;;;;;;;;;1.00;1.00;;;;;52.52;11.18;101058.47;5097170;27;46659;-84
2022/08/03 11:10:58;;;;;;;;;2.00;2.00;;;;;52.23;10.73;101054.44;5097453;27;45454;-83
2022/08/03 11:13:27;;;;;;;;;0.00;0.00;;;;;51.96;11.09;101049.19;5097870;27;45508;-83
2022/08/03 11:15:55;;;;;;;;;1.33;1.33;;;;;51.53;11.69;101047.28;5097863;27;45720;-84
2022/08/03 11:18:21;;;;;;;;;1.00;1.00;;;;;51.13;11.23;101048.31;5097537;27;45668;-83
2022/08/03 11:20:50;;;;;;;;;1.00;1.00;;;;;50.67;11.26;101046.88;5097536;27;45438;-83
2022/08/03 11:23:17;;;;;;;;;1.00;1.00;;;;;50.19;11.66;101033.56;5097439;27;45461;-84
2022/08/03 11:26:08;;;;;;;;;2.67;1.00;;;;;49.69;12.92;101026.16;5097823;27;45589;-84
2022/08/03 11:28:33;;;;;;;;;4.33;1.00;;;;;49.12;12.47;101026.69;5096901;27;45683;-83
2022/08/03 11:31:21;;;;;;;;;1.00;1.00;;;;;48.49;12.86;101024.69;5078965;27;45440;-84
2022/08/03 11:34:07;;;;;;;;;1.00;0.33;;;;;47.98;12.98;101013.28;5097252;27;45507;-84
2022/08/03 11:37:10;;;;;;;;;1.33;1.33;;;;;47.50;13.33;101019.22;5097436;27;45693;-84
2022/08/03 11:39:44;;;;;;;;;0.33;0.33;;;;;46.98;13.75;101009.88;5097117;27;46269;-83
2022/08/03 11:42:22;;;;;;;;;1.00;1.00;;;;;46.50;13.99;101016.47;5097260;27;45471;-83
2022/08/03 11:44:56;;;;;;;;;2.00;2.00;;;;;46.01;14.84;100999.84;5097279;27;45555;-84